createdAt,value
2018-06-24T00:00:01.911Z,13.90
2018-06-24T00:02:30.144Z,13.90
2018-06-24T00:04:58.415Z,13.90
2018-06-24T00:07:38.768Z,14.00
2018-06-24T00:10:08.720Z,14.00
2018-06-24T00:12:49.590Z,13.90
2018-06-24T00:15:30.436Z,13.90
2018-06-24T00:20:32.101Z,13.80
2018-06-24T00:23:12.820Z,13.90
2018-06-24T00:25:41.074Z,14.00
2018-06-24T00:28:11.050Z,14.10
2018-06-24T00:30:39.546Z,14.00
2018-06-24T00:33:20.483Z,14.00
2018-06-24T00:36:01.313Z,14.00
2018-06-24T00:38:29.586Z,14.00
2018-06-24T00:41:10.276Z,14.10
2018-06-24T00:43:39.618Z,14.10
2018-06-24T00:48:47.868Z,13.90
2018-06-24T00:51:16.100Z,13.80
2018-06-24T00:53:56.511Z,13.80
2018-06-24T00:56:24.788Z,13.80
2018-06-24T00:59:05.445Z,13.80
2018-06-24T01:01:46.254Z,13.70
2018-06-24T01:04:26.409Z,13.60
2018-06-24T01:06:54.682Z,13.70
2018-06-24T01:09:22.958Z,13.80
2018-06-24T01:11:51.214Z,13.80
2018-06-24T01:14:19.444Z,13.80
2018-06-24T01:16:59.874Z,13.90
2018-06-24T01:19:28.123Z,13.80
2018-06-24T01:21:56.351Z,13.80
2018-06-24T01:24:24.596Z,13.90
2018-06-24T01:26:52.777Z,13.80
2018-06-24T01:29:33.553Z,13.80
2018-06-24T01:32:14.268Z,13.80
2018-06-24T01:34:55.120Z,13.80
2018-06-24T01:37:35.912Z,13.70
2018-06-24T01:40:16.833Z,13.70
2018-06-24T01:42:57.662Z,13.70
2018-06-24T01:45:25.875Z,13.70
2018-06-24T01:48:06.065Z,13.60
2018-06-24T01:50:46.893Z,13.40
2018-06-24T01:53:15.102Z,13.60
2018-06-24T01:55:55.626Z,13.70
2018-06-24T01:58:36.394Z,13.70
2018-06-24T02:01:17.136Z,13.60
2018-06-24T02:03:57.898Z,13.70
2018-06-24T02:06:38.784Z,13.70
2018-06-24T02:09:19.632Z,13.70
2018-06-24T02:11:48.558Z,13.70
2018-06-24T02:14:17.152Z,13.70
2018-06-24T02:16:46.350Z,13.70
2018-06-24T02:19:27.006Z,13.70
2018-06-24T02:21:55.299Z,13.60
2018-06-24T02:24:23.491Z,13.60
2018-06-24T02:27:03.871Z,13.40
2018-06-24T02:29:44.628Z,13.40
2018-06-24T02:32:25.613Z,13.40
2018-06-24T02:34:53.898Z,13.40
2018-06-24T02:37:22.120Z,13.30
2018-06-24T02:39:50.563Z,13.40
2018-06-24T02:42:18.797Z,13.40
2018-06-24T02:45:00.037Z,13.40
2018-06-24T02:47:28.259Z,13.40
2018-06-24T02:50:03.349Z,13.40
2018-06-24T02:52:31.796Z,13.40
2018-06-24T02:55:04.253Z,13.30
2018-06-24T02:57:38.130Z,13.30
2018-06-24T03:00:06.455Z,13.30
2018-06-24T03:02:34.707Z,13.20
2018-06-24T03:05:04.314Z,13.20
2018-06-24T03:07:44.564Z,13.20
2018-06-24T03:10:18.284Z,13.30
2018-06-24T03:12:46.478Z,13.30
2018-06-24T03:15:27.044Z,13.40
2018-06-24T03:17:55.365Z,13.50
2018-06-24T03:20:35.921Z,13.60
2018-06-24T03:23:04.546Z,13.70
2018-06-24T03:25:32.811Z,13.60
2018-06-24T03:28:01.516Z,13.50
2018-06-24T03:30:33.006Z,13.40
2018-06-24T03:33:01.506Z,13.30
2018-06-24T03:35:29.922Z,13.20
2018-06-24T03:38:10.682Z,13.30
2018-06-24T03:40:51.696Z,13.30
2018-06-24T03:43:21.761Z,13.40
2018-06-24T03:45:49.961Z,13.30
2018-06-24T03:48:18.201Z,13.30
2018-06-24T03:53:20.572Z,13.30
2018-06-24T03:55:48.800Z,13.40
2018-06-24T03:58:18.706Z,13.40
2018-06-24T04:00:59.416Z,13.40
2018-06-24T04:03:27.628Z,13.40
2018-06-24T04:05:57.165Z,13.40
2018-06-24T04:08:29.126Z,13.50
2018-06-24T04:11:10.039Z,13.40
2018-06-24T04:13:38.372Z,13.50
2018-06-24T04:16:07.390Z,13.40
2018-06-24T04:18:43.943Z,13.50
2018-06-24T04:21:21.968Z,13.50
2018-06-24T04:23:51.519Z,13.50
2018-06-24T04:26:21.492Z,13.40
2018-06-24T04:28:49.725Z,13.30
2018-06-24T04:31:18.554Z,13.30
2018-06-24T04:33:46.738Z,13.20
2018-06-24T04:36:14.938Z,13.20
2018-06-24T04:38:55.551Z,13.30
2018-06-24T04:41:24.406Z,13.30
2018-06-24T04:44:05.252Z,13.40
2018-06-24T04:46:33.515Z,13.40
2018-06-24T04:49:01.902Z,13.40
2018-06-24T04:51:42.936Z,13.40
2018-06-24T04:54:12.571Z,13.30
2018-06-24T04:56:42.061Z,13.20
2018-06-24T04:59:10.440Z,13.20
2018-06-24T05:01:38.743Z,13.30
2018-06-24T05:04:07.182Z,13.30
2018-06-24T05:06:35.414Z,13.40
2018-06-24T05:09:05.470Z,13.30
2018-06-24T05:11:46.175Z,13.30
2018-06-24T05:14:14.413Z,13.30
2018-06-24T05:16:54.724Z,13.40
2018-06-24T05:19:22.947Z,13.30
2018-06-24T05:21:51.229Z,13.40
2018-06-24T05:24:19.614Z,13.40
2018-06-24T05:26:47.909Z,13.40
2018-06-24T05:29:28.933Z,13.40
2018-06-24T05:32:09.605Z,13.50
2018-06-24T05:34:50.376Z,13.50
2018-06-24T05:37:31.144Z,13.60
2018-06-24T05:40:00.050Z,13.50
2018-06-24T05:42:41.045Z,13.50
2018-06-24T05:45:21.898Z,13.60
2018-06-24T05:47:50.177Z,13.50
2018-06-24T05:50:18.500Z,13.60
2018-06-24T05:52:47.154Z,13.60
2018-06-24T05:55:27.970Z,13.70
2018-06-24T05:57:56.277Z,13.80
2018-06-24T06:00:36.595Z,13.70
2018-06-24T06:03:12.658Z,13.70
2018-06-24T06:05:53.649Z,13.80
2018-06-24T06:08:21.822Z,13.70
2018-06-24T06:10:50.177Z,13.80
2018-06-24T06:13:18.512Z,13.90
2018-06-24T06:15:59.359Z,13.90
2018-06-24T06:18:40.211Z,13.80
2018-06-24T06:21:08.463Z,13.90
2018-06-24T06:23:48.804Z,13.80
2018-06-24T06:26:29.476Z,13.80
2018-06-24T06:29:10.336Z,13.90
2018-06-24T06:31:51.112Z,13.80
2018-06-24T06:34:31.912Z,13.70
2018-06-24T06:37:12.814Z,13.70
2018-06-24T06:39:41.106Z,13.80
2018-06-24T06:42:21.537Z,13.90
2018-06-24T06:45:02.552Z,13.90
2018-06-24T06:47:43.425Z,13.90
2018-06-24T06:50:24.155Z,13.90
2018-06-24T06:53:05.044Z,13.90
2018-06-24T06:55:45.850Z,14.00
2018-06-24T06:58:14.098Z,14.00
2018-06-24T07:00:54.483Z,13.90
2018-06-24T07:03:22.781Z,14.00
2018-06-24T07:06:03.432Z,14.00
2018-06-24T07:08:44.347Z,14.10
2018-06-24T07:11:16.373Z,14.10
2018-06-24T07:13:44.643Z,14.20
2018-06-24T07:16:25.140Z,14.20
2018-06-24T07:18:54.540Z,14.10
2018-06-24T07:21:35.040Z,14.00
2018-06-24T07:24:15.605Z,14.00
2018-06-24T07:26:56.617Z,14.00
2018-06-24T07:29:37.433Z,14.10
2018-06-24T07:32:18.228Z,14.20
2018-06-24T07:34:59.096Z,14.40
2018-06-24T07:37:39.843Z,14.30
2018-06-24T07:40:08.138Z,14.40
2018-06-24T07:42:48.438Z,14.30
2018-06-24T07:45:16.737Z,14.30
2018-06-24T07:47:57.033Z,14.40
2018-06-24T07:50:25.912Z,14.50
2018-06-24T07:52:54.126Z,14.50
2018-06-24T07:55:34.553Z,14.60
2018-06-24T07:58:15.215Z,14.60
2018-06-24T08:00:43.465Z,14.50
2018-06-24T08:03:23.844Z,14.30
2018-06-24T08:06:04.614Z,14.10
2018-06-24T08:08:32.993Z,14.10
2018-06-24T08:11:13.449Z,14.20
2018-06-24T08:13:54.242Z,14.10
2018-06-24T08:16:35.055Z,14.20
2018-06-24T08:19:16.112Z,14.30
2018-06-24T08:21:57.167Z,14.30
2018-06-24T08:24:38.940Z,14.20
2018-06-24T08:27:19.997Z,14.20
2018-06-24T08:30:00.925Z,14.20
2018-06-24T08:32:41.709Z,14.10
2018-06-24T08:35:22.515Z,14.10
2018-06-24T08:38:03.525Z,14.00
2018-06-24T08:40:31.927Z,14.00
2018-06-24T08:43:12.204Z,13.70
2018-06-24T08:45:40.472Z,13.80
2018-06-24T08:48:21.100Z,13.90
2018-06-24T08:50:49.439Z,13.90
2018-06-24T08:53:29.871Z,14.00
2018-06-24T08:56:10.544Z,14.20
2018-06-24T08:58:39.017Z,14.10
2018-06-24T09:01:07.227Z,14.20
2018-06-24T09:03:48.287Z,14.20
2018-06-24T09:06:29.212Z,14.20
2018-06-24T09:08:57.439Z,14.30
2018-06-24T09:11:37.814Z,14.40
2018-06-24T09:14:18.624Z,14.40
2018-06-24T09:16:59.456Z,14.70
2018-06-24T09:19:40.371Z,14.90
2018-06-24T09:22:08.663Z,15.10
2018-06-24T09:24:36.948Z,15.20
2018-06-24T09:27:17.447Z,15.40
2018-06-24T09:29:58.368Z,15.50
2018-06-24T09:32:26.704Z,15.60
2018-06-24T09:34:55.009Z,15.60
2018-06-24T09:37:35.234Z,15.40
2018-06-24T09:40:15.996Z,15.50
2018-06-24T09:42:57.036Z,15.40
2018-06-24T09:45:38.213Z,15.20
2018-06-24T09:48:19.307Z,15.10
2018-06-24T09:51:00.323Z,15.10
2018-06-24T09:53:41.258Z,15.10
2018-06-24T09:56:22.327Z,15.10
2018-06-24T09:59:03.040Z,15.40
2018-06-24T10:01:44.088Z,15.50
2018-06-24T10:04:24.953Z,15.60
2018-06-24T10:07:05.646Z,15.50
2018-06-24T10:09:46.735Z,15.60
2018-06-24T10:12:15.441Z,15.60
2018-06-24T10:14:53.964Z,15.80
2018-06-24T10:17:34.266Z,15.70
2018-06-24T10:20:15.118Z,15.50
2018-06-24T10:22:45.514Z,15.30
2018-06-24T10:25:13.894Z,15.30
2018-06-24T10:27:54.728Z,15.40
2018-06-24T10:30:24.170Z,15.60
2018-06-24T10:33:04.475Z,15.70
2018-06-24T10:35:34.345Z,15.70
2018-06-24T10:38:02.625Z,15.80
2018-06-24T10:40:30.974Z,15.90
2018-06-24T10:42:59.388Z,16.00
2018-06-24T10:45:27.657Z,16.20
2018-06-24T10:48:08.972Z,16.40
2018-06-24T10:50:42.977Z,16.20
2018-06-24T10:53:12.855Z,15.90
2018-06-24T10:55:41.267Z,15.60
2018-06-24T10:58:09.626Z,15.70
2018-06-24T11:00:41.529Z,15.80
2018-06-24T11:03:15.899Z,16.10
2018-06-24T11:05:44.284Z,16.50
2018-06-24T11:08:13.237Z,16.70
2018-06-24T11:10:47.726Z,16.70
2018-06-24T11:13:16.337Z,16.60
2018-06-24T11:15:50.979Z,16.30
2018-06-24T11:18:31.226Z,16.10
2018-06-24T11:20:59.479Z,16.00
2018-06-24T11:23:27.794Z,16.30
2018-06-24T11:26:08.746Z,16.50
2018-06-24T11:28:37.073Z,16.60
2018-06-24T11:31:17.452Z,16.50
2018-06-24T11:33:45.753Z,16.40
2018-06-24T11:36:25.931Z,16.00
2018-06-24T11:39:06.709Z,16.00
2018-06-24T11:41:34.975Z,16.20
2018-06-24T11:44:03.552Z,16.50
2018-06-24T11:46:44.629Z,16.60
2018-06-24T11:49:13.060Z,16.40
2018-06-24T11:51:41.372Z,16.30
2018-06-24T11:54:12.400Z,16.50
2018-06-24T11:56:52.973Z,17.10
2018-06-24T11:59:21.252Z,17.20
2018-06-24T12:01:55.426Z,17.10
2018-06-24T12:04:25.407Z,17.10
2018-06-24T12:06:53.729Z,17.00
2018-06-24T12:09:24.102Z,17.00
2018-06-24T12:12:04.526Z,17.10
2018-06-24T12:14:32.743Z,17.00
2018-06-24T12:17:01.114Z,17.10
2018-06-24T12:19:41.931Z,17.20
2018-06-24T12:22:10.214Z,17.50
2018-06-24T12:24:38.510Z,18.10
2018-06-24T12:27:06.770Z,18.60
2018-06-24T12:29:47.429Z,19.70
2018-06-24T12:32:15.669Z,20.30
2018-06-24T12:34:55.993Z,20.60
2018-06-24T12:37:36.557Z,20.80
2018-06-24T12:40:21.445Z,20.10
2018-06-24T12:43:03.923Z,19.70
2018-06-24T12:45:45.049Z,18.80
2018-06-24T12:48:13.423Z,18.40
2018-06-24T12:50:54.385Z,17.90
2018-06-24T12:53:22.853Z,17.60
2018-06-24T12:56:03.219Z,17.40
2018-06-24T12:58:31.561Z,17.20
2018-06-24T13:01:12.103Z,16.90
2018-06-24T13:03:53.160Z,16.70
2018-06-24T13:06:33.932Z,16.70
2018-06-24T13:09:02.164Z,16.80
2018-06-24T13:11:43.062Z,17.00
2018-06-24T13:14:23.907Z,17.50
2018-06-24T13:17:05.030Z,17.40
2018-06-24T13:19:45.848Z,17.40
2018-06-24T13:22:14.168Z,17.30
2018-06-24T13:24:54.552Z,17.40
2018-06-24T13:27:35.247Z,17.30
2018-06-24T13:30:16.013Z,17.20
2018-06-24T13:32:56.688Z,17.30
2018-06-24T13:35:37.517Z,17.40
2018-06-24T13:38:18.459Z,17.50
2018-06-24T13:40:59.226Z,17.40
2018-06-24T13:43:27.920Z,17.20
2018-06-24T13:46:08.632Z,17.10
2018-06-24T13:48:49.469Z,17.20
2018-06-24T13:51:30.228Z,17.10
2018-06-24T13:54:11.692Z,17.10
2018-06-24T13:56:52.154Z,17.20
2018-06-24T13:59:33.192Z,17.40
2018-06-24T14:02:01.483Z,17.70
2018-06-24T14:04:34.556Z,17.80
2018-06-24T14:07:02.860Z,17.70
2018-06-24T14:09:43.646Z,17.40
2018-06-24T14:12:11.920Z,17.50
2018-06-24T14:14:40.216Z,17.40
2018-06-24T14:17:08.497Z,17.50
2018-06-24T14:19:43.614Z,17.70
2018-06-24T14:22:13.495Z,17.70
2018-06-24T14:24:53.956Z,17.40
2018-06-24T14:27:22.229Z,17.50
2018-06-24T14:30:02.477Z,17.80
2018-06-24T14:32:43.198Z,17.60
2018-06-24T14:35:11.555Z,17.80
2018-06-24T14:37:39.774Z,17.80
2018-06-24T14:40:08.426Z,17.80
2018-06-24T14:42:38.377Z,17.80
2018-06-24T14:45:18.833Z,17.80
2018-06-24T14:47:59.361Z,18.00
2018-06-24T14:50:33.638Z,18.00
2018-06-24T14:53:06.139Z,17.90
2018-06-24T14:55:46.708Z,17.90
2018-06-24T14:58:27.655Z,17.90
2018-06-24T15:01:00.716Z,17.70
2018-06-24T15:03:29.227Z,17.70
2018-06-24T15:06:09.883Z,17.80
2018-06-24T15:08:39.188Z,17.90
2018-06-24T15:11:08.137Z,17.70
2018-06-24T15:13:36.712Z,17.50
2018-06-24T15:16:12.436Z,17.40
2018-06-24T15:18:53.321Z,17.60
2018-06-24T15:21:33.979Z,17.50
2018-06-24T15:24:02.316Z,17.50
2018-06-24T15:26:42.682Z,17.40
2018-06-24T15:29:12.360Z,17.40
2018-06-24T15:31:41.695Z,17.60
2018-06-24T15:34:22.732Z,17.80
2018-06-24T15:37:03.467Z,17.80
2018-06-24T15:39:44.707Z,17.60
2018-06-24T15:42:25.459Z,17.40
2018-06-24T15:45:06.322Z,17.40
2018-06-24T15:47:34.559Z,17.30
2018-06-24T15:50:15.057Z,17.20
2018-06-24T15:52:43.362Z,17.30
2018-06-24T15:55:23.818Z,17.40
2018-06-24T15:57:52.216Z,17.40
2018-06-24T16:00:20.428Z,17.50
2018-06-24T16:02:48.687Z,17.40
2018-06-24T16:05:28.930Z,17.30
2018-06-24T16:07:57.207Z,17.10
2018-06-24T16:10:25.521Z,16.80
2018-06-24T16:13:05.817Z,16.70
2018-06-24T16:15:34.136Z,16.50
2018-06-24T16:18:14.300Z,16.30
2018-06-24T16:20:55.623Z,16.30
2018-06-24T16:23:23.719Z,16.10
2018-06-24T16:25:56.252Z,16.20
2018-06-24T16:28:36.840Z,16.20
2018-06-24T16:31:05.177Z,16.20
2018-06-24T16:33:45.692Z,16.20
2018-06-24T16:36:26.769Z,16.20
2018-06-24T16:38:55.139Z,16.30
2018-06-24T16:41:35.728Z,16.20
2018-06-24T16:44:04.072Z,16.20
2018-06-24T16:46:44.564Z,16.10
2018-06-24T16:49:17.169Z,16.10
2018-06-24T16:51:57.357Z,16.00
2018-06-24T16:54:25.777Z,16.00
2018-06-24T16:57:06.260Z,15.90
2018-06-24T16:59:47.022Z,15.90
2018-06-24T17:02:27.811Z,16.00
2018-06-24T17:05:08.846Z,16.00
2018-06-24T17:07:37.126Z,16.00
2018-06-24T17:10:05.445Z,16.10
2018-06-24T17:12:49.609Z,16.20
2018-06-24T17:15:18.078Z,16.30
2018-06-24T17:17:58.585Z,16.40
2018-06-24T17:20:39.170Z,16.40
2018-06-24T17:23:07.486Z,16.30
2018-06-24T17:25:47.949Z,16.30
2018-06-24T17:28:16.219Z,16.30
2018-06-24T17:30:57.136Z,16.40
2018-06-24T17:33:38.045Z,16.30
2018-06-24T17:36:18.660Z,16.20
2018-06-24T17:38:47.085Z,16.00
2018-06-24T17:41:15.397Z,15.80
2018-06-24T17:43:43.777Z,15.60
2018-06-24T17:46:24.404Z,15.50
2018-06-24T17:48:54.077Z,15.50
2018-06-24T17:51:22.546Z,15.50
2018-06-24T17:53:54.443Z,15.50
2018-06-24T17:56:22.694Z,15.40
2018-06-24T17:58:51.057Z,15.40
2018-06-24T18:01:32.051Z,15.30
2018-06-24T18:04:01.329Z,15.30
2018-06-24T18:06:29.813Z,15.40
2018-06-24T18:08:58.075Z,15.40
2018-06-24T18:11:39.214Z,15.50
2018-06-24T18:14:07.803Z,15.60
2018-06-24T18:16:48.686Z,15.70
2018-06-24T18:19:29.287Z,15.70
2018-06-24T18:22:09.985Z,15.70
2018-06-24T18:24:50.778Z,15.60
2018-06-24T18:27:31.546Z,15.60
2018-06-24T18:30:00.042Z,15.40
2018-06-24T18:32:28.618Z,15.40
2018-06-24T18:35:09.213Z,15.50
2018-06-24T18:37:49.952Z,15.40
2018-06-24T18:40:30.694Z,15.40
2018-06-24T18:43:11.436Z,15.40
2018-06-24T18:45:52.145Z,15.50
2018-06-24T18:48:20.436Z,15.50
2018-06-24T18:51:01.348Z,15.50
2018-06-24T18:53:41.662Z,15.50
2018-06-24T18:56:10.018Z,15.50
2018-06-24T18:58:50.467Z,15.40
2018-06-24T19:01:18.982Z,15.50
2018-06-24T19:03:59.603Z,15.40
2018-06-24T19:06:40.349Z,15.40
2018-06-24T19:09:21.253Z,15.40
2018-06-24T19:11:49.565Z,15.50
2018-06-24T19:14:17.872Z,15.50
2018-06-24T19:16:46.501Z,15.50
2018-06-24T19:19:18.484Z,15.40
2018-06-24T19:21:47.172Z,15.40
2018-06-24T19:24:27.709Z,15.50
2018-06-24T19:27:06.064Z,15.60
2018-06-24T19:29:35.990Z,15.50
2018-06-24T19:32:16.483Z,15.50
2018-06-24T19:34:57.330Z,15.50
2018-06-24T19:37:25.659Z,15.50
2018-06-24T19:39:53.968Z,15.50
2018-06-24T19:42:23.167Z,15.50
2018-06-24T19:45:03.681Z,15.50
2018-06-24T19:47:32.642Z,15.50
2018-06-24T19:50:00.918Z,15.40
2018-06-24T19:52:41.425Z,15.30
2018-06-24T19:55:22.094Z,15.40
2018-06-24T19:58:02.809Z,15.40
2018-06-24T20:00:43.478Z,15.30
2018-06-24T20:03:11.775Z,15.40
2018-06-24T20:05:40.035Z,15.40
2018-06-24T20:10:37.374Z,15.60
2018-06-24T20:13:11.453Z,15.60
2018-06-24T20:15:51.891Z,15.70
2018-06-24T20:18:32.694Z,15.70
2018-06-24T20:21:00.920Z,15.80
2018-06-24T20:23:41.433Z,15.80
2018-06-24T20:26:22.254Z,15.70
2018-06-24T20:29:02.929Z,15.60
2018-06-24T20:31:44.637Z,15.70
2018-06-24T20:34:12.900Z,15.70
2018-06-24T20:36:44.258Z,15.60
2018-06-24T20:39:16.215Z,15.60
2018-06-24T20:44:31.403Z,15.50
2018-06-24T20:46:59.855Z,15.50
2018-06-24T20:49:40.699Z,15.50
2018-06-24T20:52:21.420Z,15.50
2018-06-24T20:55:02.597Z,15.60
2018-06-24T20:57:43.147Z,15.60
2018-06-24T21:02:39.583Z,15.70
2018-06-24T21:05:20.011Z,15.70
2018-06-24T21:08:00.749Z,15.80
2018-06-24T21:10:41.871Z,15.90
2018-06-24T21:13:10.208Z,15.80
2018-06-24T21:15:51.111Z,15.90
2018-06-24T21:18:32.046Z,15.90
2018-06-24T21:21:00.333Z,15.90
2018-06-24T21:26:06.907Z,16.00
2018-06-24T21:28:35.298Z,16.00
2018-06-24T21:31:03.542Z,16.00
2018-06-24T21:33:44.125Z,15.90
2018-06-24T21:36:14.260Z,16.00
2018-06-24T21:38:42.595Z,16.00
2018-06-24T21:41:23.268Z,16.00
2018-06-24T21:44:04.118Z,16.00
2018-06-24T21:46:44.636Z,15.90
2018-06-24T21:49:13.034Z,15.80
2018-06-24T21:51:54.051Z,15.90
2018-06-24T21:54:35.163Z,15.90
2018-06-24T21:57:15.969Z,15.90
2018-06-24T21:59:45.553Z,15.90
2018-06-24T22:02:25.778Z,15.90
2018-06-24T22:05:06.464Z,15.90
2018-06-24T22:07:47.245Z,15.90
2018-06-24T22:10:15.548Z,16.00
2018-06-24T22:12:55.895Z,16.00
2018-06-24T22:15:24.339Z,16.00
2018-06-24T22:18:05.196Z,16.00
2018-06-24T22:20:46.179Z,16.00
2018-06-24T22:23:19.478Z,15.90
2018-06-24T22:25:48.513Z,15.80
2018-06-24T22:28:17.607Z,15.80
2018-06-24T22:30:57.816Z,15.70
2018-06-24T22:33:38.681Z,15.70
2018-06-24T22:36:19.542Z,15.70
2018-06-24T22:39:00.278Z,15.70
2018-06-24T22:41:40.728Z,15.70
2018-06-24T22:44:21.387Z,15.70
2018-06-24T22:46:49.684Z,15.70
2018-06-24T22:49:30.455Z,15.70
2018-06-24T22:52:11.296Z,15.70
2018-06-24T22:54:39.592Z,15.80
2018-06-24T22:57:19.901Z,15.80
2018-06-24T23:00:30.910Z,15.70
2018-06-24T23:03:11.784Z,15.70
2018-06-24T23:05:52.338Z,15.70
2018-06-24T23:08:33.053Z,15.70
2018-06-24T23:11:13.628Z,15.80
2018-06-24T23:13:41.832Z,15.90
2018-06-24T23:16:22.221Z,15.90
2018-06-24T23:19:02.980Z,15.70
2018-06-24T23:21:43.718Z,15.90
2018-06-24T23:24:24.784Z,15.80
2018-06-24T23:27:05.277Z,15.90
2018-06-24T23:29:46.160Z,15.90
2018-06-24T23:32:26.799Z,15.90
2018-06-24T23:35:07.670Z,16.00
2018-06-24T23:37:36.054Z,16.00
2018-06-24T23:40:16.309Z,16.00
2018-06-24T23:42:57.179Z,15.80
2018-06-24T23:45:38.164Z,15.80
2018-06-24T23:48:18.996Z,15.90
2018-06-24T23:50:59.918Z,15.80
2018-06-24T23:53:40.916Z,15.50
2018-06-24T23:56:09.259Z,15.50
2018-06-24T23:58:49.705Z,15.80
